createdAt,value
2023-03-11T06:22:40.461Z,98809.19
2023-03-11T06:25:42.955Z,98829.13
2023-03-11T06:28:46.315Z,98828.34
2023-03-11T06:31:48.884Z,98840.97
2023-03-11T06:34:52.773Z,98839.53
2023-03-11T06:56:53.322Z,98907.28
2023-03-11T06:59:55.943Z,98916.53
2023-03-11T07:02:58.478Z,98933.47
2023-03-11T07:06:01.397Z,98958.22
2023-03-11T07:09:04.096Z,98962.50
2023-03-11T07:12:08.643Z,98976.88
2023-03-11T07:15:12.226Z,98984.00
2023-03-11T07:18:14.753Z,99001.28
2023-03-11T07:25:08.404Z,99013.19
2023-03-11T07:28:10.984Z,99023.97
2023-03-11T07:31:15.420Z,99029.28
2023-03-11T07:34:17.942Z,99031.38
2023-03-11T07:37:20.551Z,99046.13
2023-03-11T07:40:24.562Z,99056.00
2023-03-11T07:43:27.615Z,99050.09
2023-03-11T07:46:31.257Z,99075.25
2023-03-11T07:49:33.937Z,99069.63
2023-03-11T07:52:36.492Z,99075.34
2023-03-11T07:55:40.304Z,99086.78
2023-03-11T07:58:45.721Z,99099.69
2023-03-11T08:01:48.441Z,99111.81
2023-03-11T08:04:50.922Z,99116.84
2023-03-11T08:07:53.418Z,99135.66
2023-03-11T08:10:57.246Z,99143.75
2023-03-11T08:14:00.294Z,99146.41
2023-03-11T08:17:02.800Z,99148.41
2023-03-11T08:20:08.664Z,99153.56
2023-03-11T08:23:11.200Z,99161.28
2023-03-11T08:26:17.259Z,99165.41
2023-03-11T08:29:19.761Z,99170.81
2023-03-11T08:32:22.334Z,99179.66
2023-03-11T08:35:26.358Z,99189.44
2023-03-11T08:38:30.659Z,99196.94
2023-03-11T08:41:36.391Z,99214.22
2023-03-11T08:44:38.952Z,99226.31
2023-03-11T08:47:41.988Z,99231.16
2023-03-11T08:50:54.023Z,99235.72
2023-03-11T08:53:58.897Z,99246.38
2023-03-11T08:57:04.784Z,99248.00
2023-03-11T09:00:10.700Z,99255.09
2023-03-11T09:03:15.101Z,99253.34
2023-03-11T09:06:19.721Z,99266.97
2023-03-11T09:09:22.484Z,99270.78
2023-03-11T09:12:26.559Z,99274.59
2023-03-11T09:15:29.396Z,99292.69
2023-03-11T09:18:32.017Z,99299.41
2023-03-11T09:21:35.088Z,99297.56
2023-03-11T09:24:37.615Z,99311.38
2023-03-11T09:27:41.988Z,99295.50
2023-03-11T09:30:44.463Z,99309.81
2023-03-11T09:33:47.468Z,99318.13
2023-03-11T09:36:49.990Z,99315.34
2023-03-11T09:39:52.445Z,99317.50
2023-03-11T09:43:07.470Z,99332.28
2023-03-11T09:46:31.438Z,99345.34
2023-03-11T09:49:46.902Z,99337.91
2023-03-11T09:52:57.352Z,99353.53
2023-03-11T09:56:01.136Z,99354.03
2023-03-11T09:59:08.873Z,99356.09
2023-03-11T10:02:16.851Z,99354.88
2023-03-11T10:05:24.266Z,99373.00
2023-03-11T10:08:32.010Z,99374.44
2023-03-11T10:11:49.184Z,99376.06
2023-03-11T10:15:05.844Z,99357.31
2023-03-11T10:18:32.376Z,99383.19
2023-03-11T10:21:46.732Z,99391.28
2023-03-11T10:25:00.778Z,99385.19
2023-03-11T10:28:08.562Z,99400.09
2023-03-11T10:31:21.873Z,99396.41
2023-03-11T10:34:27.877Z,99402.94
2023-03-11T10:37:48.249Z,99411.91
2023-03-11T10:40:55.908Z,99412.38
2023-03-11T10:44:03.872Z,99414.19
2023-03-11T10:47:16.590Z,99418.63
2023-03-11T10:50:20.706Z,99422.09
2023-03-11T10:53:23.911Z,99416.44
2023-03-11T10:56:32.079Z,99435.03
2023-03-11T10:59:46.318Z,99424.72
2023-03-11T11:02:58.114Z,99436.69
2023-03-11T11:06:03.235Z,99425.19
2023-03-11T11:09:16.225Z,99429.69
2023-03-11T11:12:22.010Z,99433.78
2023-03-11T11:15:27.249Z,99430.88
2023-03-11T11:18:34.866Z,99438.69
2023-03-11T11:21:39.332Z,99449.00
2023-03-11T11:24:45.870Z,99448.47
2023-03-11T11:27:56.085Z,99428.53
2023-03-11T11:31:00.661Z,99446.09
2023-03-11T11:34:07.057Z,99445.47
2023-03-11T11:37:14.645Z,99434.94
2023-03-11T11:40:28.097Z,99438.56
2023-03-11T11:43:43.357Z,99446.88
2023-03-11T11:46:52.311Z,99453.81
2023-03-11T11:49:58.817Z,99465.69
2023-03-11T11:53:12.086Z,99464.63
2023-03-11T11:56:15.090Z,99455.63
2023-03-11T11:59:19.813Z,99454.59
2023-03-11T12:02:43.458Z,99459.78
2023-03-11T12:05:53.468Z,99464.13
2023-03-11T12:09:08.485Z,99466.56
2023-03-11T12:12:22.702Z,99476.88
2023-03-11T12:15:29.649Z,99474.66
2023-03-11T12:18:39.138Z,99470.53
2023-03-11T12:22:00.968Z,99477.81
2023-03-11T12:25:22.428Z,99483.50
2023-03-11T12:28:37.632Z,99478.75
2023-03-11T12:31:42.401Z,99490.69
2023-03-11T12:34:44.960Z,99488.06
2023-03-11T12:37:57.135Z,99491.03
2023-03-11T12:41:05.873Z,99475.31
2023-03-11T12:44:26.603Z,99496.28
2023-03-11T12:47:29.704Z,99494.09
2023-03-11T12:50:40.713Z,99492.66
2023-03-11T12:53:46.842Z,99501.81
2023-03-11T12:56:56.284Z,99499.47
2023-03-11T13:00:19.695Z,99512.00
2023-03-11T13:03:40.834Z,99526.66
2023-03-11T13:07:18.800Z,99523.16
2023-03-11T13:10:40.924Z,99524.28
2023-03-11T13:13:43.932Z,99532.66
2023-03-11T13:16:47.675Z,99535.13
2023-03-11T13:19:52.750Z,99532.75
2023-03-11T13:23:21.032Z,99533.44
2023-03-11T13:26:32.251Z,99526.75
2023-03-11T13:29:57.224Z,99536.13
2023-03-11T13:33:18.364Z,99537.25
2023-03-11T13:36:37.393Z,99548.19
2023-03-11T13:39:49.490Z,99552.72
2023-03-11T13:42:56.840Z,99548.03
2023-03-11T13:46:03.346Z,99560.75
2023-03-11T13:49:11.332Z,99568.81
2023-03-11T13:52:17.921Z,99571.19
2023-03-11T13:55:23.121Z,99573.56
2023-03-11T13:58:29.205Z,99583.53
2023-03-11T14:01:31.917Z,99574.69
2023-03-11T14:04:37.426Z,99582.28
2023-03-11T14:07:40.036Z,99588.78
2023-03-11T14:10:53.883Z,99590.28
2023-03-11T14:13:58.125Z,99595.28
2023-03-11T14:17:03.903Z,99598.84
2023-03-11T14:20:14.800Z,99610.09
2023-03-11T14:23:20.486Z,99617.78
2023-03-11T14:26:25.283Z,99613.06
2023-03-11T14:29:33.578Z,99625.81
2023-03-11T14:32:37.503Z,99626.28
2023-03-11T14:35:40.036Z,99628.38
2023-03-11T14:38:44.581Z,99626.66
2023-03-11T14:41:47.144Z,99636.28
2023-03-11T14:44:58.785Z,99634.09
2023-03-11T14:48:08.214Z,99638.47
2023-03-11T14:51:17.733Z,99638.31
2023-03-11T14:54:25.688Z,99645.06
2023-03-11T14:57:37.666Z,99640.66
2023-03-11T15:00:47.445Z,99631.13
2023-03-11T15:03:53.616Z,99641.72
2023-03-11T15:06:56.977Z,99648.56
2023-03-11T15:09:59.562Z,99642.41
2023-03-11T15:13:08.061Z,99645.84
2023-03-11T15:16:25.399Z,99650.00
2023-03-11T15:19:34.474Z,99655.13
2023-03-11T15:22:40.131Z,99642.81
2023-03-11T15:25:50.364Z,99651.94
2023-03-11T15:28:59.130Z,99645.81
2023-03-11T15:32:25.147Z,99650.09
2023-03-11T15:35:29.085Z,99655.78
2023-03-11T15:38:31.538Z,99657.31
2023-03-11T15:41:34.069Z,99652.59
2023-03-11T15:44:40.764Z,99651.22
2023-03-11T15:47:44.976Z,99658.59
2023-03-11T15:50:53.243Z,99664.94
2023-03-11T15:53:56.589Z,99667.31
2023-03-11T15:57:01.092Z,99667.50
2023-03-11T16:00:05.450Z,99668.34
2023-03-11T16:03:09.230Z,99676.34
2023-03-11T16:06:11.700Z,99672.94
2023-03-11T16:09:15.364Z,99673.56
2023-03-11T16:12:20.326Z,99680.59
2023-03-11T16:15:28.534Z,99683.84
2023-03-11T16:18:33.767Z,99688.38
2023-03-11T16:21:40.287Z,99692.75
2023-03-11T16:24:43.531Z,99690.88
2023-03-11T16:27:46.001Z,99691.78
2023-03-11T16:30:51.210Z,99683.97
2023-03-11T16:33:55.096Z,99690.63
2023-03-11T16:36:57.787Z,99698.47
2023-03-11T16:40:00.268Z,99698.91
2023-03-11T16:43:04.950Z,99709.41
2023-03-11T16:46:07.813Z,99707.06
2023-03-11T16:49:11.936Z,99711.34
2023-03-11T16:52:14.533Z,99723.53
2023-03-11T16:55:17.363Z,99723.56
2023-03-11T16:58:20.280Z,99726.25
2023-03-11T17:01:23.169Z,99729.88
2023-03-11T17:04:27.048Z,99733.38
2023-03-11T17:07:29.663Z,99728.22
2023-03-11T17:10:38.121Z,99730.19
2023-03-11T17:13:40.650Z,99740.94
2023-03-11T17:16:43.360Z,99734.06
2023-03-11T17:19:48.022Z,99730.78
2023-03-11T17:22:50.972Z,99739.56
2023-03-11T17:25:56.696Z,99736.09
2023-03-11T17:29:12.555Z,99743.19
2023-03-11T17:32:29.024Z,99737.41
2023-03-11T17:35:38.901Z,99741.84
